Time;durP1;ratioP1;P1;durP2;ratioP2;P2;SDS_P1;SDS_P2;PMS_P1;PMS_P2;Temp;Humidity;BMP_temperature;BMP_pressure;BME280_temperature;BME280_humidity;BME280_pressure;Samples;Min_cycle;Max_cycle;Signal;HPM_P1;HPM_P2
2023/10/11 00:00:57;;;;;;;27.65;12.27;;;16.20;97.40;;;;;;5046594;28;20037;-74
2023/10/11 00:05:50;;;;;;;32.33;12.50;;;16.40;97.50;;;;;;5036027;28;20537;-74
2023/10/11 00:08:17;;;;;;;35.88;11.95;;;16.40;97.40;;;;;;5016443;28;20044;-74
2023/10/11 00:10:49;;;;;;;25.55;12.30;;;16.40;97.40;;;;;;5034351;28;20719;-74
2023/10/11 00:13:15;;;;;;;32.40;12.45;;;16.50;97.30;;;;;;5016857;28;20047;-74
2023/10/11 00:15:43;;;;;;;28.45;11.75;;;16.50;97.10;;;;;;5034152;28;20028;-74
2023/10/11 00:18:10;;;;;;;32.63;12.68;;;16.50;96.90;;;;;;5027923;28;20021;-75
2023/10/11 00:23:22;;;;;;;35.38;12.93;;;16.60;96.80;;;;;;5024006;28;20044;-74
2023/10/11 00:25:50;;;;;;;37.42;11.93;;;16.60;96.80;;;;;;5034216;28;20179;-74
2023/10/11 00:28:17;;;;;;;35.88;12.77;;;16.60;96.70;;;;;;5019143;28;20489;-74
2023/10/11 00:30:46;;;;;;;31.98;12.88;;;16.60;96.90;;;;;;5037552;28;20037;-74
2023/10/11 00:33:17;;;;;;;33.78;12.82;;;16.60;97.10;;;;;;5022814;28;20029;-74
2023/10/11 00:35:47;;;;;;;35.78;12.32;;;16.60;97.10;;;;;;5033971;28;20547;-74
2023/10/11 00:38:18;;;;;;;33.70;12.35;;;16.60;97.10;;;;;;5021586;28;20036;-74
2023/10/11 00:41:00;;;;;;;33.55;12.73;;;16.70;97.00;;;;;;5032199;28;20788;-74
2023/10/11 00:43:36;;;;;;;33.38;13.55;;;16.70;96.90;;;;;;5023736;28;20084;-74
2023/10/11 00:46:10;;;;;;;36.42;13.43;;;16.70;96.90;;;;;;5031641;28;20516;-74
2023/10/11 00:48:37;;;;;;;33.70;13.98;;;16.70;96.90;;;;;;5021547;28;20037;-74
2023/10/11 00:51:07;;;;;;;37.97;13.63;;;16.70;97.00;;;;;;5035524;28;20043;-74
2023/10/11 00:53:34;;;;;;;31.02;14.15;;;16.70;96.90;;;;;;5023409;28;20047;-74
2023/10/11 00:56:04;;;;;;;30.52;13.20;;;16.70;96.60;;;;;;5032304;28;20029;-74
2023/10/11 00:58:30;;;;;;;33.10;13.23;;;16.70;96.60;;;;;;5019878;28;20037;-75
2023/10/11 01:00:56;;;;;;;32.65;12.88;;;16.70;96.70;;;;;;5032778;28;20033;-74
2023/10/11 01:03:23;;;;;;;32.45;13.00;;;16.60;96.60;;;;;;5020683;28;20028;-74
2023/10/11 01:05:49;;;;;;;32.85;14.40;;;16.60;96.50;;;;;;5035003;28;20544;-74
2023/10/11 01:08:15;;;;;;;27.08;14.18;;;16.70;96.50;;;;;;5023017;28;20041;-73
2023/10/11 01:10:45;;;;;;;38.22;14.15;;;16.70;96.50;;;;;;5033801;28;20029;-73
2023/10/11 01:13:40;;;;;;;30.60;13.20;;;16.70;96.40;;;;;;5029014;28;20029;-74
2023/10/11 01:16:07;;;;;;;33.05;13.73;;;16.80;96.30;;;;;;5032528;28;20478;-74
2023/10/11 01:18:40;;;;;;;31.63;13.93;;;16.80;96.20;;;;;;5025995;28;20055;-73
2023/10/11 01:21:07;;;;;;;36.88;13.68;;;16.80;96.20;;;;;;5031657;28;20758;-74
2023/10/11 01:23:34;;;;;;;29.95;13.50;;;16.90;96.30;;;;;;5033589;28;20045;-73
2023/10/11 01:26:06;;;;;;;34.53;14.07;;;16.80;96.30;;;;;;5025648;28;20051;-73
2023/10/11 01:28:33;;;;;;;31.20;13.25;;;16.80;96.30;;;;;;5028712;28;20033;-74
2023/10/11 01:31:00;;;;;;;30.77;13.82;;;16.90;96.20;;;;;;5026214;28;20132;-73
2023/10/11 01:33:27;;;;;;;31.67;13.85;;;16.90;96.30;;;;;;5031043;28;20028;-73
2023/10/11 01:35:52;;;;;;;32.42;13.13;;;16.90;96.20;;;;;;5023280;28;20067;-74
2023/10/11 01:38:18;;;;;;;29.88;13.40;;;16.90;96.20;;;;;;5037616;28;20117;-74
2023/10/11 01:40:44;;;;;;;34.85;14.50;;;16.90;96.20;;;;;;5020794;28;20956;-74
2023/10/11 01:43:10;;;;;;;27.95;12.63;;;16.90;96.20;;;;;;5031815;28;20029;-75
2023/10/11 01:45:39;;;;;;;31.45;14.20;;;16.90;96.30;;;;;;5022097;28;20599;-74
2023/10/11 01:48:05;;;;;;;;;;;16.90;96.30;;;;;;5026147;28;20063;-74
2023/10/11 01:50:31;;;;;;;29.58;13.00;;;16.90;96.70;;;;;;5025790;28;19960;-75
2023/10/11 01:52:56;;;;;;;29.85;12.60;;;16.90;96.50;;;;;;5039603;28;20144;-74
2023/10/11 01:55:22;;;;;;;31.00;13.50;;;16.90;96.60;;;;;;5024081;28;20040;-74
2023/10/11 01:57:50;;;;;;;34.38;13.13;;;16.90;96.50;;;;;;5033032;28;20155;-75
2023/10/11 02:00:20;;;;;;;30.10;13.68;;;16.90;96.40;;;;;;5022943;28;20029;-74
2023/10/11 02:03:03;;;;;;;28.75;13.00;;;16.90;96.20;;;;;;5026158;28;20113;-74
2023/10/11 02:05:31;;;;;;;26.65;12.93;;;16.90;96.10;;;;;;5018235;28;20029;-74
2023/10/11 02:08:04;;;;;;;30.25;12.30;;;16.90;96.10;;;;;;5026584;28;20024;-74
2023/10/11 02:10:33;;;;;;;38.30;13.32;;;16.90;96.20;;;;;;5023103;28;20440;-74
2023/10/11 02:12:59;;;;;;;31.27;13.07;;;16.90;96.30;;;;;;5030015;28;20088;-74
2023/10/11 02:15:30;;;;;;;27.30;12.30;;;16.90;96.00;;;;;;5015982;28;20045;-73
2023/10/11 02:17:57;;;;;;;29.00;12.93;;;16.90;96.00;;;;;;5027545;28;20033;-75
2023/10/11 02:20:24;;;;;;;34.53;12.57;;;16.90;96.00;;;;;;5028490;28;20029;-75
2023/10/11 02:22:51;;;;;;;35.00;12.30;;;16.90;96.10;;;;;;5028971;28;20107;-74
2023/10/11 02:25:24;;;;;;;24.98;12.07;;;16.90;95.80;;;;;;5039259;28;20053;-76
2023/10/11 02:27:51;;;;;;;35.72;13.40;;;16.80;95.90;;;;;;5019092;28;20033;-75
2023/10/11 02:30:21;;;;;;;31.58;12.00;;;16.80;96.00;;;;;;5037252;28;20057;-73
2023/10/11 02:32:49;;;;;;;30.80;10.52;;;16.80;96.00;;;;;;5028190;28;20519;-73
2023/10/11 02:35:17;;;;;;;36.53;11.90;;;16.80;96.10;;;;;;5037356;28;20124;-74
2023/10/11 02:37:45;;;;;;;27.33;11.50;;;16.90;96.00;;;;;;5027476;28;20029;-74
2023/10/11 02:40:16;;;;;;;33.10;10.38;;;16.90;96.10;;;;;;5042083;28;20048;-73
2023/10/11 02:42:43;;;;;;;25.75;10.57;;;16.90;96.00;;;;;;5029584;28;20033;-73
2023/10/11 02:45:12;;;;;;;23.42;10.20;;;16.80;96.10;;;;;;5039341;28;20045;-73
2023/10/11 02:47:38;;;;;;;;;;;16.80;96.10;;;;;;5048566;28;20025;-73
2023/10/11 02:50:05;;;;;;;30.27;10.18;;;16.80;96.10;;;;;;5049825;28;19921;-73
2023/10/11 02:52:35;;;;;;;30.77;10.10;;;16.80;96.20;;;;;;5027629;28;20041;-73
2023/10/11 02:55:21;;;;;;;26.38;9.43;;;16.80;96.20;;;;;;5034827;28;20053;-75
2023/10/11 02:57:48;;;;;;;28.25;10.77;;;16.90;96.20;;;;;;5023703;28;20029;-75
2023/10/11 03:00:22;;;;;;;25.90;9.60;;;16.80;96.20;;;;;;5036928;28;20087;-75
2023/10/11 03:02:55;;;;;;;36.10;9.32;;;16.80;96.30;;;;;;5021395;28;20063;-75
2023/10/11 03:05:27;;;;;;;26.08;9.77;;;16.80;96.20;;;;;;5035743;28;20106;-75
2023/10/11 03:07:54;;;;;;;26.33;9.18;;;16.80;96.20;;;;;;5024936;28;20563;-75
2023/10/11 03:10:20;;;;;;;41.55;10.13;;;16.80;96.20;;;;;;5042371;28;20033;-75
2023/10/11 03:12:50;;;;;;;26.33;9.88;;;16.80;96.50;;;;;;5025325;28;20607;-75
2023/10/11 03:15:19;;;;;;;30.85;9.73;;;16.80;96.40;;;;;;5030196;28;20040;-75
2023/10/11 03:17:46;;;;;;;29.48;8.98;;;16.80;96.90;;;;;;5023158;28;20029;-74
2023/10/11 03:20:29;;;;;;;23.70;9.68;;;16.70;96.70;;;;;;5035687;28;20028;-75
2023/10/11 03:22:59;;;;;;;29.67;9.32;;;16.70;96.80;;;;;;5023153;28;20040;-75
2023/10/11 03:25:28;;;;;;;24.83;9.25;;;16.70;96.80;;;;;;5038319;28;20452;-75
2023/10/11 03:27:54;;;;;;;32.08;9.65;;;16.70;97.00;;;;;;5020530;28;20602;-73
2023/10/11 03:30:24;;;;;;;24.60;9.88;;;16.80;97.00;;;;;;5035560;28;20045;-75
2023/10/11 03:32:50;;;;;;;29.40;9.68;;;16.70;97.10;;;;;;5035274;28;20473;-75
2023/10/11 03:35:18;;;;;;;36.78;9.80;;;16.80;97.10;;;;;;5026376;28;20528;-72
2023/10/11 03:37:57;;;;;;;28.90;10.20;;;16.70;97.30;;;;;;5036785;28;20047;-73
2023/10/11 03:40:34;;;;;;;30.40;10.73;;;16.70;97.40;;;;;;5030251;28;20705;-73
2023/10/11 03:43:03;;;;;;;30.63;10.85;;;16.80;97.50;;;;;;5034301;28;20270;-75
2023/10/11 03:45:30;;;;;;;;;;;16.80;97.70;;;;;;5026746;28;20042;-75
2023/10/11 03:47:58;;;;;;;27.48;8.63;;;16.80;97.70;;;;;;5031193;28;19921;-75
2023/10/11 03:50:47;;;;;;;29.33;9.73;;;16.80;97.70;;;;;;5026069;28;20029;-75
2023/10/11 03:53:13;;;;;;;32.08;9.70;;;16.80;97.80;;;;;;5034739;28;20036;-75
2023/10/11 03:55:45;;;;;;;28.92;9.55;;;16.80;97.80;;;;;;5020310;28;20029;-73
2023/10/11 03:58:12;;;;;;;38.40;11.10;;;16.90;97.80;;;;;;5033086;28;20025;-75
2023/10/11 04:00:46;;;;;;;26.42;9.32;;;16.80;97.90;;;;;;5027215;28;20090;-75
2023/10/11 04:03:14;;;;;;;29.27;10.20;;;16.90;97.90;;;;;;5034412;28;20033;-75
2023/10/11 04:05:40;;;;;;;30.48;10.32;;;16.90;98.00;;;;;;5027523;28;20041;-75
2023/10/11 04:08:10;;;;;;;33.85;11.15;;;16.90;98.10;;;;;;5036731;28;20033;-74
2023/10/11 04:10:39;;;;;;;32.15;10.68;;;16.90;98.20;;;;;;5027709;28;20382;-75
2023/10/11 04:13:08;;;;;;;;;;;16.90;98.30;;;;;;5040271;28;20032;-75
2023/10/11 04:15:35;;;;;;;27.10;10.40;;;16.90;98.40;;;;;;5022108;28;19920;-75
2023/10/11 04:18:14;;;;;;;24.13;9.80;;;16.90;98.50;;;;;;5038232;28;20025;-75
2023/10/11 04:20:40;;;;;;;32.67;11.15;;;16.90;98.50;;;;;;5023460;28;20056;-75
2023/10/11 04:23:14;;;;;;;28.20;9.93;;;16.90;98.50;;;;;;5036605;28;20033;-76
2023/10/11 04:25:43;;;;;;;35.60;10.50;;;17.00;98.50;;;;;;5025216;28;20041;-75
2023/10/11 04:28:12;;;;;;;29.02;10.48;;;17.00;98.50;;;;;;5033166;28;20143;-75
2023/10/11 04:30:43;;;;;;;38.28;10.23;;;16.90;98.50;;;;;;5025624;28;20768;-75
2023/10/11 04:33:13;;;;;;;36.95;10.80;;;17.00;98.50;;;;;;5037255;28;20543;-74
2023/10/11 04:35:44;;;;;;;34.65;10.93;;;16.90;98.70;;;;;;5017477;28;20792;-75
2023/10/11 04:38:11;;;;;;;35.80;12.25;;;17.00;98.70;;;;;;5038794;28;20025;-75
2023/10/11 04:40:42;;;;;;;39.40;11.63;;;17.00;98.60;;;;;;5028236;28;20033;-75
2023/10/11 04:43:25;;;;;;;37.58;11.55;;;17.00;98.60;;;;;;5036906;28;20035;-75
2023/10/11 04:45:55;;;;;;;52.38;14.52;;;17.00;98.90;;;;;;5023448;28;20039;-75
2023/10/11 04:48:30;;;;;;;46.17;13.27;;;17.00;98.90;;;;;;5034125;28;20061;-75
2023/10/11 04:51:04;;;;;;;47.78;14.40;;;17.00;99.00;;;;;;5021468;28;20037;-75
2023/10/11 04:54:13;;;;;;;39.55;14.50;;;17.00;99.00;;;;;;5034862;28;20027;-75
2023/10/11 04:56:52;;;;;;;47.35;14.88;;;17.00;99.10;;;;;;5016337;28;20900;-75
2023/10/11 04:59:06;;;;;;;44.72;14.07;;;17.00;99.00;;;;;;5034504;28;20450;-75
2023/10/11 05:02:38;;;;;;;49.17;14.27;;;17.00;99.00;;;;;;5021863;28;20021;-74
2023/10/11 05:04:28;;;;;;;54.08;16.73;;;17.00;99.00;;;;;;5034535;28;20060;-73
2023/10/11 05:06:55;;;;;;;48.97;16.40;;;17.00;99.10;;;;;;5026104;28;20040;-74
2023/10/11 05:09:29;;;;;;;49.13;17.02;;;17.00;99.20;;;;;;5034165;28;20083;-75
2023/10/11 05:12:12;;;;;;;38.58;15.18;;;17.00;99.20;;;;;;5026983;28;20035;-74
2023/10/11 05:14:40;;;;;;;39.03;13.63;;;17.00;99.40;;;;;;5032275;28;20033;-74
2023/10/11 05:17:18;;;;;;;44.35;14.85;;;17.00;99.10;;;;;;5026176;28;20390;-74
2023/10/11 05:20:44;;;;;;;40.13;15.05;;;17.10;99.20;;;;;;5038561;28;20037;-74
2023/10/11 05:30:28;;;;;;;53.92;17.48;;;17.00;99.50;;;;;;5036308;28;20037;-74
2023/10/11 05:33:41;;;;;;;44.20;16.10;;;17.00;99.60;;;;;;5031288;28;20037;-74
2023/10/11 05:51:40;;;;;;;53.55;17.75;;;16.90;99.80;;;;;;5015551;28;20103;-75
2023/10/11 05:52:16;;;;;;;50.28;15.70;;;16.90;99.90;;;;;;5034579;28;20040;-75
2023/10/11 05:54:42;;;;;;;54.53;15.85;;;16.90;99.90;;;;;;5021051;28;20025;-75
2023/10/11 05:57:08;;;;;;;56.38;14.88;;;17.00;99.90;;;;;;5029940;28;20087;-75
2023/10/11 05:59:35;;;;;;;59.60;17.08;;;17.00;99.90;;;;;;5017105;28;20052;-74
2023/10/11 06:02:07;;;;;;;62.47;18.17;;;17.00;99.90;;;;;;5033263;28;20037;-74
2023/10/11 06:04:39;;;;;;;53.03;16.05;;;17.00;99.90;;;;;;5021775;28;20037;-74
2023/10/11 06:07:06;;;;;;;48.60;15.25;;;16.90;99.90;;;;;;5031506;28;20155;-73
2023/10/11 06:09:39;;;;;;;44.60;14.38;;;16.90;99.90;;;;;;5017992;28;20075;-73
2023/10/11 06:12:22;;;;;;;44.10;15.10;;;16.90;99.90;;;;;;5036254;28;20033;-73
2023/10/11 06:14:50;;;;;;;42.15;15.07;;;17.00;99.90;;;;;;5023762;28;20587;-73
2023/10/11 06:17:21;;;;;;;38.78;13.85;;;16.90;99.90;;;;;;5034276;28;20079;-73
2023/10/11 06:19:53;;;;;;;44.63;12.73;;;16.90;99.90;;;;;;5023051;28;20033;-74
2023/10/11 06:22:21;;;;;;;40.67;13.50;;;16.90;99.90;;;;;;5033194;28;20086;-75
2023/10/11 06:24:47;;;;;;;43.17;13.45;;;16.90;99.90;;;;;;5040792;28;20053;-73
2023/10/11 06:29:56;;;;;;;50.53;15.70;;;17.00;99.90;;;;;;5029316;28;20055;-74
2023/10/11 06:32:23;;;;;;;44.78;16.08;;;17.00;99.90;;;;;;5051019;28;20032;-76
2023/10/11 06:34:50;;;;;;;46.92;16.25;;;16.90;99.90;;;;;;5035280;28;20055;-74
2023/10/11 06:37:18;;;;;;;62.50;16.52;;;16.90;99.90;;;;;;5042156;28;20035;-75
2023/10/11 06:42:13;;;;;;;36.60;13.30;;;16.90;99.90;;;;;;5022935;28;20447;-75
2023/10/11 06:44:39;;;;;;;40.00;13.80;;;17.00;99.90;;;;;;5010699;28;20510;-75
2023/10/11 06:47:05;;;;;;;44.38;15.07;;;17.00;99.90;;;;;;5025252;28;20513;-75
2023/10/11 06:49:40;;;;;;;42.97;16.80;;;17.00;99.90;;;;;;5012612;28;20132;-75
2023/10/11 06:52:07;;;;;;;48.47;17.90;;;17.00;99.90;;;;;;5024577;28;20762;-75
2023/10/11 06:54:33;;;;;;;42.60;18.95;;;17.00;99.90;;;;;;5020891;28;20037;-75
2023/10/11 06:57:01;;;;;;;48.55;18.25;;;17.00;99.90;;;;;;5016051;28;20036;-75
2023/10/11 06:59:28;;;;;;;49.70;19.60;;;17.00;99.90;;;;;;5037348;28;20159;-75
2023/10/11 07:01:54;;;;;;;57.90;23.40;;;17.00;99.90;;;;;;5024663;28;20029;-75
2023/10/11 07:04:19;;;;;;;63.10;25.85;;;17.00;99.90;;;;;;5037657;28;20037;-75
2023/10/11 07:06:48;;;;;;;66.57;26.48;;;17.00;99.90;;;;;;5028826;28;20040;-75
2023/10/11 07:09:20;;;;;;;55.47;23.67;;;17.00;99.90;;;;;;5036420;28;20041;-75
2023/10/11 07:11:50;;;;;;;64.20;25.67;;;17.00;99.90;;;;;;5027577;28;20175;-75
2023/10/11 07:14:16;;;;;;;64.18;24.63;;;17.00;99.90;;;;;;5034881;28;20064;-75
2023/10/11 07:16:44;;;;;;;49.92;19.88;;;17.00;99.90;;;;;;5021581;28;20033;-75
2023/10/11 07:19:11;;;;;;;47.38;23.08;;;17.00;99.90;;;;;;5030129;28;20040;-75
2023/10/11 07:21:52;;;;;;;69.80;25.65;;;17.00;99.90;;;;;;5021056;28;20039;-75
2023/10/11 07:24:19;;;;;;;46.00;23.40;;;17.00;99.90;;;;;;5027151;28;20045;-75
2023/10/11 07:29:13;;;;;;;58.55;23.00;;;17.00;99.90;;;;;;5020056;28;20089;-75
2023/10/11 07:31:48;;;;;;;55.83;22.55;;;17.00;99.90;;;;;;5011467;28;20136;-75
2023/10/11 07:34:17;;;;;;;48.15;22.02;;;17.00;99.90;;;;;;5028452;28;20033;-74
2023/10/11 07:36:44;;;;;;;41.58;22.38;;;16.90;99.90;;;;;;5014743;28;20124;-75
2023/10/11 07:39:15;;;;;;;49.65;22.02;;;16.90;99.90;;;;;;5021086;28;20154;-74
2023/10/11 07:41:42;;;;;;;42.08;19.05;;;17.00;99.90;;;;;;5011048;28;20032;-75
2023/10/11 07:44:08;;;;;;;54.58;23.50;;;16.90;99.90;;;;;;5021183;28;20041;-76
2023/10/11 07:46:34;;;;;;;50.00;21.10;;;16.90;99.90;;;;;;5015964;28;20040;-77
2023/10/11 07:49:01;;;;;;;49.13;20.77;;;16.90;99.90;;;;;;5016451;28;20074;-75
2023/10/11 07:51:28;;;;;;;35.40;18.63;;;16.90;99.90;;;;;;5020174;28;20036;-73
2023/10/11 07:53:54;;;;;;;48.92;19.17;;;17.00;99.90;;;;;;5025026;28;20096;-73
2023/10/11 07:56:20;;;;;;;45.28;19.58;;;17.00;99.90;;;;;;5024223;28;20039;-73
2023/10/11 07:58:47;;;;;;;39.38;19.38;;;17.10;99.90;;;;;;5021085;28;20104;-76
2023/10/11 08:01:24;;;;;;;39.00;18.73;;;17.10;99.90;;;;;;5023183;28;20116;-74
2023/10/11 08:03:51;;;;;;;38.15;18.80;;;17.10;99.90;;;;;;5016165;28;20033;-76
2023/10/11 08:06:23;;;;;;;48.80;16.55;;;17.10;99.90;;;;;;5029425;28;20116;-73
2023/10/11 08:08:51;;;;;;;18.60;10.90;;;17.20;99.90;;;;;;5021417;28;20120;-74
2023/10/11 08:11:22;;;;;;;29.30;12.02;;;17.40;99.90;;;;;;5021184;28;20033;-73
2023/10/11 08:13:49;;;;;;;32.42;11.93;;;17.40;99.40;;;;;;5008690;28;20047;-72
2023/10/11 08:16:18;;;;;;;37.40;12.27;;;17.40;99.20;;;;;;5017017;28;20436;-75
2023/10/11 08:18:48;;;;;;;27.17;12.18;;;17.30;99.20;;;;;;5017654;28;20528;-75
2023/10/11 08:21:15;;;;;;;27.95;12.27;;;17.30;99.10;;;;;;5048492;28;20112;-75
2023/10/11 08:23:42;;;;;;;28.40;12.23;;;17.30;99.00;;;;;;5021209;28;20985;-76
2023/10/11 08:26:14;;;;;;;29.98;11.50;;;17.30;98.90;;;;;;5026501;28;20057;-74
2023/10/11 08:28:48;;;;;;;29.70;11.90;;;17.40;98.40;;;;;;5013606;28;20120;-74
2023/10/11 08:31:26;;;;;;;34.80;12.07;;;17.50;98.40;;;;;;5022726;28;20043;-74
2023/10/11 08:33:53;;;;;;;30.38;11.35;;;17.50;98.30;;;;;;5019593;28;20068;-74
2023/10/11 08:36:19;;;;;;;30.55;11.48;;;17.50;98.20;;;;;;5027438;28;20170;-77
2023/10/11 08:38:45;;;;;;;26.42;10.65;;;17.50;97.90;;;;;;5014659;28;20039;-73
2023/10/11 08:41:15;;;;;;;26.83;11.00;;;17.50;97.80;;;;;;5024528;28;20037;-71
2023/10/11 08:43:42;;;;;;;29.48;10.10;;;17.40;97.80;;;;;;5001045;28;20035;-71
2023/10/11 08:46:12;;;;;;;18.20;9.77;;;17.40;97.80;;;;;;5018859;28;20032;-73
2023/10/11 08:48:38;;;;;;;28.73;9.18;;;17.30;97.70;;;;;;5013048;28;20365;-74
2023/10/11 08:51:11;;;;;;;25.73;9.55;;;17.30;97.30;;;;;;5025522;28;20112;-75
2023/10/11 08:53:45;;;;;;;30.73;11.05;;;17.40;97.00;;;;;;5019753;28;20036;-72
2023/10/11 08:56:14;;;;;;;23.58;10.30;;;17.50;96.80;;;;;;5021365;28;20125;-74
2023/10/11 08:58:41;;;;;;;;;;;17.60;96.60;;;;;;5010004;28;20024;-74
2023/10/11 09:01:07;;;;;;;29.08;10.75;;;17.60;96.30;;;;;;5020857;28;19947;-71
2023/10/11 09:03:39;;;;;;;29.48;11.35;;;17.60;96.40;;;;;;5013583;28;20029;-71
2023/10/11 09:06:19;;;;;;;32.67;11.77;;;17.60;96.40;;;;;;5019806;28;20043;-71
2023/10/11 09:08:47;;;;;;;32.47;12.07;;;17.60;96.40;;;;;;5030099;28;20465;-72
2023/10/11 09:11:28;;;;;;;35.97;13.02;;;17.60;96.20;;;;;;5012102;28;20043;-71
2023/10/11 09:17:19;;;;;;;40.05;13.13;;;17.60;96.20;;;;;;5024066;28;20039;-71
2023/10/11 09:19:56;;;;;;;40.03;13.60;;;17.60;96.20;;;;;;5019448;28;20037;-71
2023/10/11 09:22:23;;;;;;;37.72;12.35;;;17.60;96.10;;;;;;5027906;28;20036;-71
2023/10/11 09:25:05;;;;;;;33.17;11.82;;;17.70;96.20;;;;;;5014914;28;20060;-71
2023/10/11 09:27:50;;;;;;;33.15;10.63;;;17.70;96.00;;;;;;5021071;28;20033;-71
2023/10/11 09:30:20;;;;;;;48.58;11.88;;;17.70;96.00;;;;;;5015633;28;20115;-74
2023/10/11 09:32:51;;;;;;;37.67;10.23;;;17.80;95.90;;;;;;5021209;28;20128;-72
2023/10/11 09:35:31;;;;;;;48.33;12.30;;;17.90;95.60;;;;;;5011050;28;20090;-72
2023/10/11 09:37:57;;;;;;;;;;;18.00;95.70;;;;;;5029531;28;20126;-73
2023/10/11 09:40:27;;;;;;;38.50;9.98;;;18.10;95.20;;;;;;5021879;28;19923;-74
2023/10/11 09:43:00;;;;;;;32.05;10.43;;;18.20;94.50;;;;;;5029941;28;20033;-73
2023/10/11 09:45:40;;;;;;;35.50;8.90;;;18.20;94.50;;;;;;5015258;28;20037;-71
2023/10/11 09:48:06;;;;;;;37.60;10.23;;;18.30;93.70;;;;;;5025667;28;20116;-71
2023/10/11 09:50:32;;;;;;;32.28;9.82;;;18.40;93.50;;;;;;5015970;28;20044;-71
2023/10/11 09:53:00;;;;;;;31.98;9.48;;;18.50;93.40;;;;;;5029507;28;20421;-71
2023/10/11 09:55:33;;;;;;;32.08;8.82;;;18.40;93.30;;;;;;5013580;28;20220;-71
2023/10/11 09:58:11;;;;;;;29.83;9.80;;;18.50;93.20;;;;;;5013459;28;20036;-71
2023/10/11 10:00:57;;;;;;;30.00;8.63;;;18.60;93.10;;;;;;5009188;28;20083;-71
2023/10/11 10:03:24;;;;;;;30.00;8.25;;;18.80;92.40;;;;;;5016467;28;20094;-70
2023/10/11 10:06:18;;;;;;;38.30;9.25;;;18.90;92.00;;;;;;5011102;28;20028;-71
2023/10/11 10:08:47;;;;;;;30.50;8.80;;;19.00;91.90;;;;;;5027827;28;20037;-71
2023/10/11 10:11:14;;;;;;;31.92;9.65;;;19.00;91.90;;;;;;5006566;28;20025;-71
2023/10/11 10:14:00;;;;;;;35.72;8.35;;;19.20;91.70;;;;;;5027036;28;20040;-74
2023/10/11 10:17:06;;;;;;;42.05;8.68;;;19.40;91.20;;;;;;5015241;28;20028;-72
2023/10/11 10:19:39;;;;;;;42.38;8.93;;;19.70;90.70;;;;;;5025105;28;20116;-72
2023/10/11 10:22:26;;;;;;;31.60;8.25;;;19.80;90.40;;;;;;5012654;28;20021;-71
2023/10/11 10:24:55;;;;;;;33.70;8.15;;;19.80;90.30;;;;;;5021282;28;20160;-72
2023/10/11 10:27:40;;;;;;;34.28;8.27;;;19.60;90.40;;;;;;5013287;28;20083;-73
2023/10/11 10:30:08;;;;;;;42.90;10.02;;;19.50;90.90;;;;;;5020965;28;20071;-72
2023/10/11 10:32:34;;;;;;;39.53;9.30;;;19.40;91.10;;;;;;5014170;28;20987;-74
2023/10/11 10:35:20;;;;;;;41.67;10.00;;;19.40;91.30;;;;;;5023861;28;20143;-74
2023/10/11 10:37:47;;;;;;;29.67;7.55;;;19.60;90.70;;;;;;5014915;28;20052;-77
2023/10/11 10:40:37;;;;;;;44.85;8.68;;;19.80;90.50;;;;;;5027571;28;20036;-73
2023/10/11 10:43:19;;;;;;;41.05;8.38;;;20.10;89.60;;;;;;5025725;28;20124;-75
2023/10/11 10:45:47;;;;;;;35.13;8.05;;;20.40;87.70;;;;;;5034483;28;20029;-76
2023/10/11 10:48:19;;;;;;;25.80;7.25;;;20.50;87.30;;;;;;5025722;28;20037;-76
2023/10/11 10:50:51;;;;;;;27.35;6.57;;;21.00;84.60;;;;;;5032235;28;20025;-76
2023/10/11 10:53:17;;;;;;;31.17;7.13;;;20.80;84.60;;;;;;5027066;28;20896;-76
2023/10/11 10:55:44;;;;;;;28.85;6.93;;;20.70;85.20;;;;;;5029874;28;20040;-74
2023/10/11 10:58:18;;;;;;;27.63;6.10;;;20.60;85.20;;;;;;5015021;28;20041;-75
2023/10/11 11:00:46;;;;;;;27.77;6.63;;;20.30;86.50;;;;;;5031589;28;20033;-76
2023/10/11 11:03:22;;;;;;;22.95;5.45;;;20.10;87.50;;;;;;5026538;28;20151;-74
2023/10/11 11:05:56;;;;;;;17.08;5.47;;;20.10;86.60;;;;;;5034749;28;20086;-76
2023/10/11 11:08:27;;;;;;;19.58;5.30;;;20.10;87.00;;;;;;5036565;28;20033;-76
2023/10/11 11:10:59;;;;;;;20.10;5.75;;;20.10;86.60;;;;;;5038375;28;20777;-74
2023/10/11 11:13:29;;;;;;;16.15;5.40;;;19.90;87.10;;;;;;5023848;28;20029;-77
2023/10/11 11:15:55;;;;;;;22.05;6.63;;;20.10;87.20;;;;;;5029293;28;20071;-76
2023/10/11 11:18:36;;;;;;;21.98;6.10;;;19.90;87.50;;;;;;5018986;28;20523;-77
2023/10/11 11:21:18;;;;;;;20.05;5.80;;;19.80;88.20;;;;;;5030726;28;20554;-78
2023/10/11 11:23:45;;;;;;;20.88;6.55;;;19.50;88.80;;;;;;5015218;28;20071;-79
2023/10/11 11:26:15;;;;;;;18.33;5.80;;;19.90;88.50;;;;;;5030262;28;20049;-76
2023/10/11 11:28:43;;;;;;;16.42;5.57;;;20.00;87.90;;;;;;5023000;28;20345;-76
2023/10/11 11:31:11;;;;;;;17.05;6.32;;;20.30;86.80;;;;;;5025758;28;20412;-76
2023/10/11 11:33:47;;;;;;;13.45;5.35;;;20.50;86.10;;;;;;5031310;28;20120;-81
2023/10/11 11:36:30;;;;;;;19.25;6.40;;;20.60;84.70;;;;;;5024972;28;20029;-79
2023/10/11 11:39:00;;;;;;;21.15;6.43;;;20.60;85.20;;;;;;5022735;28;20082;-76
2023/10/11 11:41:40;;;;;;;16.98;6.40;;;20.60;84.70;;;;;;5033507;28;20025;-76
2023/10/11 11:44:08;;;;;;;12.48;6.50;;;21.00;83.80;;;;;;5022447;28;20065;-78
2023/10/11 11:46:33;;;;;;;20.02;6.45;;;21.50;81.70;;;;;;5022341;28;20036;-76
2023/10/11 11:49:09;;;;;;;18.52;6.82;;;21.50;81.80;;;;;;5028055;28;20548;-76
2023/10/11 11:51:37;;;;;;;19.23;7.07;;;21.40;82.30;;;;;;5017951;28;20063;-75
2023/10/11 11:54:03;;;;;;;24.27;8.00;;;21.00;83.20;;;;;;5032617;28;21968;-75
2023/10/11 11:56:29;;;;;;;21.60;8.43;;;20.70;84.10;;;;;;5018455;28;20038;-74
2023/10/11 11:59:00;;;;;;;18.00;8.45;;;20.60;84.70;;;;;;5020987;28;20057;-75
2023/10/11 12:01:26;;;;;;;22.92;8.65;;;20.50;84.80;;;;;;5017346;28;20431;-74
2023/10/11 12:03:54;;;;;;;17.27;8.60;;;20.60;84.60;;;;;;5027216;28;20463;-73
2023/10/11 12:06:23;;;;;;;23.92;8.98;;;20.70;84.20;;;;;;5015300;28;20036;-73
2023/10/11 12:09:05;;;;;;;21.65;7.72;;;20.70;84.10;;;;;;5020950;28;20044;-74
2023/10/11 12:11:31;;;;;;;22.00;8.23;;;21.30;82.70;;;;;;5016205;28;20033;-74
2023/10/11 12:13:58;;;;;;;19.00;8.68;;;21.30;81.70;;;;;;5031030;28;20037;-75
2023/10/11 12:16:24;;;;;;;25.55;9.32;;;21.20;82.40;;;;;;5020405;28;20488;-75
2023/10/11 12:18:57;;;;;;;18.85;9.30;;;21.30;82.70;;;;;;5027841;28;20033;-74
2023/10/11 12:21:23;;;;;;;27.30;9.48;;;21.30;82.10;;;;;;5019592;28;20366;-74
2023/10/11 12:23:50;;;;;;;21.15;9.57;;;21.20;82.80;;;;;;5026241;28;20029;-74
2023/10/11 12:26:17;;;;;;;22.25;9.25;;;20.90;83.50;;;;;;5013151;28;20161;-74
2023/10/11 12:28:45;;;;;;;23.58;10.18;;;20.70;84.80;;;;;;5026166;28;20404;-74
2023/10/11 12:31:11;;;;;;;26.45;10.68;;;20.50;85.90;;;;;;5030177;28;20078;-74
2023/10/11 12:33:36;;;;;;;23.90;10.20;;;20.20;87.70;;;;;;5027976;28;20480;-74
2023/10/11 12:36:06;;;;;;;21.10;10.48;;;20.00;87.30;;;;;;5016042;28;20075;-74
2023/10/11 12:38:36;;;;;;;;;;;19.90;87.50;;;;;;5025292;28;20029;-75
2023/10/11 12:41:03;;;;;;;24.38;10.13;;;19.90;87.10;;;;;;5019188;28;19921;-74
2023/10/11 12:43:29;;;;;;;25.25;9.38;;;19.90;87.50;;;;;;5022164;28;20024;-73
2023/10/11 12:45:55;;;;;;;21.33;10.25;;;20.10;87.10;;;;;;5024379;28;20147;-72
2023/10/11 12:48:20;;;;;;;28.00;11.63;;;20.10;87.00;;;;;;5016218;28;20044;-72
2023/10/11 12:50:46;;;;;;;23.00;11.02;;;20.10;87.50;;;;;;5028930;28;20562;-73
2023/10/11 12:53:13;;;;;;;19.50;10.77;;;20.10;87.20;;;;;;5014918;28;20064;-72
2023/10/11 12:55:41;;;;;;;20.45;10.20;;;20.10;86.70;;;;;;5028503;28;20087;-72
2023/10/11 12:58:11;;;;;;;23.55;10.85;;;20.20;86.50;;;;;;5009999;28;20057;-72
2023/10/11 13:00:47;;;;;;;21.95;11.10;;;20.00;87.30;;;;;;5026790;28;20041;-76
2023/10/11 13:03:17;;;;;;;22.23;11.48;;;20.00;88.10;;;;;;5016204;28;20056;-76
2023/10/11 13:05:44;;;;;;;21.83;11.15;;;20.00;88.10;;;;;;5021076;28;20607;-79
2023/10/11 13:08:11;;;;;;;29.20;11.60;;;20.00;88.70;;;;;;5016861;28;20040;-77
2023/10/11 13:10:43;;;;;;;25.08;11.93;;;19.80;89.50;;;;;;5026244;28;20156;-75
2023/10/11 13:13:09;;;;;;;30.55;12.05;;;19.80;89.10;;;;;;5018254;28;20381;-75
2023/10/11 13:15:38;;;;;;;26.63;11.27;;;19.70;89.90;;;;;;5033738;28;20055;-74
2023/10/11 13:18:09;;;;;;;23.52;11.98;;;19.90;89.90;;;;;;5017823;28;20106;-73
2023/10/11 13:20:37;;;;;;;33.58;12.10;;;20.10;89.30;;;;;;5029838;28;20036;-74
2023/10/11 13:23:02;;;;;;;23.67;12.45;;;20.70;86.20;;;;;;5017864;28;20082;-74
2023/10/11 13:25:28;;;;;;;26.05;11.93;;;20.80;85.70;;;;;;5023098;28;20049;-75
2023/10/11 13:27:54;;;;;;;22.90;11.70;;;20.80;86.00;;;;;;5019165;28;20054;-75